createdAt,value
2023-01-18T00:10:49.755Z,39.83
2023-01-18T00:11:49.723Z,38.92
2023-01-18T00:12:49.707Z,39.00
2023-01-18T00:13:49.667Z,40.05
2023-01-18T00:14:49.648Z,39.19
2023-01-18T00:15:49.619Z,38.82
2023-01-18T00:16:49.592Z,40.00
2023-01-18T00:17:49.549Z,39.34
2023-01-18T00:18:49.514Z,39.29
2023-01-18T00:19:49.501Z,37.42
2023-01-18T00:20:49.495Z,38.95
2023-01-18T00:21:49.427Z,37.68
2023-01-18T00:22:49.400Z,38.42
2023-01-18T00:23:49.389Z,38.27
2023-01-18T00:24:49.351Z,37.15
2023-01-18T00:25:49.317Z,38.11
2023-01-18T00:26:49.300Z,38.78
2023-01-18T00:27:49.272Z,38.31
2023-01-18T00:28:49.252Z,39.66
2023-01-18T00:29:49.218Z,38.36
2023-01-18T00:30:49.206Z,38.96
2023-01-18T00:31:49.275Z,38.91
2023-01-18T00:32:49.207Z,38.09
2023-01-18T00:33:49.121Z,39.59
2023-01-18T00:34:50.538Z,37.52
2023-01-18T00:35:49.075Z,37.66
2023-01-18T00:36:49.053Z,38.83
2023-01-18T00:37:49.039Z,38.05
2023-01-18T00:38:49.001Z,37.18
2023-01-18T00:39:48.982Z,37.59
2023-01-18T00:40:48.956Z,36.73
2023-01-18T00:41:48.929Z,37.56
2023-01-18T00:42:48.902Z,38.76
2023-01-18T05:45:41.358Z,29.72
2023-01-18T05:46:41.327Z,30.13
2023-01-18T05:47:41.299Z,29.85
2023-01-18T05:48:41.297Z,29.73
2023-01-18T05:49:42.082Z,29.19
2023-01-18T05:50:41.206Z,30.30
2023-01-18T05:51:41.187Z,29.94
2023-01-18T05:52:41.152Z,29.55
2023-01-18T05:53:41.146Z,29.27
2023-01-18T05:54:41.110Z,29.91
2023-01-18T05:55:41.084Z,29.33
2023-01-18T05:56:41.085Z,29.44
2023-01-18T05:57:41.045Z,28.94
2023-01-18T05:58:41.023Z,28.08
2023-01-18T05:59:41.019Z,28.35
2023-01-18T06:00:40.988Z,27.79
2023-01-18T06:01:41.002Z,29.10
2023-01-18T06:02:40.977Z,28.32
2023-01-18T06:03:40.918Z,29.34
2023-01-18T06:04:40.929Z,28.76
2023-01-18T06:05:40.890Z,28.71
2023-01-18T06:06:40.851Z,30.63
2023-01-18T06:07:40.823Z,30.00
2023-01-18T06:08:40.812Z,29.72
2023-01-18T06:09:42.825Z,29.58
2023-01-18T06:10:40.757Z,30.51
2023-01-18T06:11:40.738Z,31.23
2023-01-18T06:12:40.710Z,29.85
2023-01-18T06:13:40.692Z,30.61
2023-01-18T06:14:40.688Z,30.07
2023-01-18T06:15:40.680Z,29.88
2023-01-18T06:16:40.676Z,28.45
2023-01-18T06:17:40.632Z,29.03
2023-01-18T06:18:40.623Z,29.97
2023-01-18T06:19:40.597Z,29.00
2023-01-18T06:20:40.588Z,30.49
2023-01-18T06:21:40.557Z,32.09
2023-01-18T06:22:40.532Z,30.26
2023-01-18T06:23:40.522Z,29.83
2023-01-18T06:24:40.495Z,31.03
2023-01-18T06:25:40.473Z,30.06
2023-01-18T06:26:40.555Z,31.42
2023-01-18T06:27:40.419Z,30.53
2023-01-18T06:28:40.409Z,30.68
2023-01-18T06:29:40.373Z,32.65
2023-01-18T06:30:40.364Z,31.08
2023-01-18T06:31:40.369Z,31.33
2023-01-18T06:32:40.344Z,35.04
2023-01-18T06:33:40.333Z,35.36
2023-01-18T06:34:40.300Z,38.12
2023-01-18T06:35:40.267Z,39.17
2023-01-18T06:36:40.287Z,48.34
2023-01-18T06:37:40.240Z,45.80
2023-01-18T06:38:40.203Z,47.59
2023-01-18T06:39:40.185Z,53.16
2023-01-18T06:40:40.144Z,51.08
2023-01-18T06:41:40.156Z,51.61
2023-01-18T06:42:40.093Z,54.19
2023-01-18T06:43:40.121Z,57.99
2023-01-18T06:44:40.056Z,59.94
2023-01-18T06:45:40.022Z,59.31
2023-01-18T06:46:39.982Z,56.94
2023-01-18T06:47:39.952Z,59.69
2023-01-18T06:48:39.958Z,59.90
2023-01-18T06:49:39.927Z,64.52
2023-01-18T06:50:39.914Z,70.05
2023-01-18T06:51:39.883Z,72.01
2023-01-18T06:52:39.865Z,80.08
2023-01-18T06:53:39.860Z,92.55
2023-01-18T06:54:39.853Z,95.45
2023-01-18T06:55:39.804Z,106.90
2023-01-18T06:56:39.860Z,114.22
2023-01-18T06:57:39.772Z,123.40
2023-01-18T06:58:39.764Z,129.69
2023-01-18T06:59:39.739Z,138.75
2023-01-18T07:00:39.711Z,144.90
2023-01-18T07:01:39.782Z,155.56
2023-01-18T07:02:39.649Z,158.65
2023-01-18T07:03:39.672Z,166.51
2023-01-18T07:04:39.607Z,172.09
2023-01-18T07:05:39.601Z,174.20
2023-01-18T07:06:39.537Z,185.10
2023-01-18T07:07:39.504Z,191.83
2023-01-18T07:09:39.467Z,200.36
2023-01-18T07:10:39.414Z,205.87
2023-01-18T07:11:39.384Z,213.21
2023-01-18T07:12:39.341Z,216.42
2023-01-18T07:13:39.324Z,223.27
2023-01-18T07:14:39.309Z,225.87
2023-01-18T07:16:39.257Z,237.53
2023-01-18T07:17:39.177Z,242.91
2023-01-18T07:18:39.142Z,246.10
2023-01-18T07:19:39.120Z,248.12
2023-01-18T07:20:39.079Z,250.00
2023-01-18T07:21:39.055Z,250.27
2023-01-18T07:22:39.025Z,251.79
2023-01-18T07:23:38.982Z,255.21
2023-01-18T07:24:38.963Z,262.00
2023-01-18T07:25:38.924Z,271.18
2023-01-18T07:26:38.896Z,250.81
2023-01-18T10:31:32.709Z,131.82
2023-01-18T10:32:32.657Z,133.06
2023-01-18T10:33:32.624Z,131.67
2023-01-18T10:34:32.592Z,132.17
2023-01-18T10:35:32.541Z,132.35
2023-01-18T10:36:32.503Z,130.12
2023-01-18T10:37:32.460Z,131.01
2023-01-18T10:38:33.408Z,129.98
2023-01-18T10:40:32.359Z,126.85
2023-01-18T10:42:32.314Z,130.27
2023-01-18T10:43:32.282Z,127.60
2023-01-18T10:44:32.225Z,125.16
2023-01-18T10:45:32.243Z,122.13
2023-01-18T10:46:32.247Z,125.28
2023-01-18T10:47:32.130Z,118.63
2023-01-18T10:48:32.154Z,115.07
2023-01-18T10:49:32.044Z,119.19
2023-01-18T10:50:32.035Z,122.82
2023-01-18T10:51:31.979Z,122.00
2023-01-18T10:52:31.943Z,123.58
2023-01-18T10:53:31.932Z,124.80
2023-01-18T10:54:31.872Z,124.74
2023-01-18T10:55:31.837Z,127.22
2023-01-18T10:56:31.802Z,128.61
2023-01-18T10:57:31.783Z,124.12
2023-01-18T10:58:31.735Z,123.64
2023-01-18T10:59:31.713Z,128.03
2023-01-18T11:00:31.680Z,131.65
2023-01-18T11:01:31.810Z,133.97
2023-01-18T11:02:31.659Z,139.13
2023-01-18T11:03:31.627Z,141.33
2023-01-18T11:04:31.556Z,140.66
2023-01-18T11:05:31.517Z,143.47
2023-01-18T11:06:31.459Z,142.99
2023-01-18T11:07:31.428Z,151.83
2023-01-18T11:08:31.403Z,156.73
2023-01-18T11:09:31.353Z,156.20
2023-01-18T11:10:31.323Z,153.42
2023-01-18T11:11:31.295Z,157.35
2023-01-18T11:12:31.260Z,161.97
2023-01-18T11:13:31.247Z,161.92
2023-01-18T11:14:31.241Z,163.98
2023-01-18T11:15:31.253Z,161.15
2023-01-18T11:16:31.218Z,161.40
2023-01-18T11:17:31.124Z,165.06
2023-01-18T11:18:31.094Z,165.25
2023-01-18T11:19:31.058Z,163.14
2023-01-18T11:20:31.020Z,163.22
2023-01-18T11:21:30.993Z,163.01
2023-01-18T11:22:30.956Z,160.96
2023-01-18T11:23:30.920Z,160.96
2023-01-18T11:24:30.924Z,158.83
2023-01-18T11:25:30.872Z,160.17
2023-01-18T11:26:30.842Z,159.92
2023-01-18T11:27:30.809Z,157.44
2023-01-18T11:28:30.832Z,157.98
2023-01-18T11:29:30.752Z,160.70
2023-01-18T11:30:30.713Z,157.31
2023-01-18T11:31:30.859Z,158.69
2023-01-18T11:32:30.631Z,164.11
2023-01-18T11:33:30.600Z,174.31
2023-01-18T11:34:30.550Z,172.40
2023-01-18T11:35:30.552Z,171.15
2023-01-18T11:36:30.477Z,171.07
2023-01-18T11:37:30.440Z,168.58
2023-01-18T11:38:30.416Z,168.31
2023-01-18T11:39:30.389Z,166.49
2023-01-18T11:40:30.335Z,162.90
2023-01-18T11:41:30.288Z,160.39
2023-01-18T11:42:30.260Z,158.81
2023-01-18T11:43:30.222Z,156.74
2023-01-18T11:44:30.179Z,149.78
2023-01-18T11:45:30.225Z,148.47
2023-01-18T11:46:30.129Z,147.82
2023-01-18T11:47:30.088Z,144.88
2023-01-18T11:48:30.087Z,140.14
2023-01-18T11:49:30.040Z,139.48
2023-01-18T11:50:30.041Z,137.62
2023-01-18T11:51:29.983Z,133.18
2023-01-18T11:52:29.948Z,128.90
2023-01-18T11:53:29.925Z,122.09
2023-01-18T11:54:29.909Z,120.76
2023-01-18T11:55:29.864Z,122.74
2023-01-18T11:56:29.834Z,117.37
2023-01-18T11:57:29.813Z,115.94
2023-01-18T11:58:29.788Z,113.98
2023-01-18T11:59:29.773Z,110.31
2023-01-18T12:00:29.776Z,107.53
2023-01-18T12:01:29.703Z,104.24
2023-01-18T12:02:29.753Z,104.23
2023-01-18T12:03:29.708Z,99.30
2023-01-18T12:04:29.623Z,98.15
2023-01-18T12:05:29.597Z,96.79
2023-01-18T12:06:29.574Z,93.98
2023-01-18T12:07:29.529Z,91.41
2023-01-18T12:08:29.516Z,90.53
2023-01-18T12:09:29.460Z,87.62
2023-01-18T12:10:29.425Z,84.92
2023-01-18T12:11:29.397Z,80.88
2023-01-18T12:12:29.363Z,79.08
2023-01-18T12:13:29.357Z,79.18
2023-01-18T12:14:29.303Z,69.75
2023-01-18T12:15:29.267Z,69.57
2023-01-18T12:16:29.266Z,73.12
2023-01-18T12:17:29.203Z,75.77
2023-01-18T12:18:29.167Z,82.57
2023-01-18T12:19:29.135Z,86.81
2023-01-18T12:20:29.104Z,99.48
2023-01-18T12:21:29.074Z,99.86
2023-01-18T12:22:29.036Z,100.99
2023-01-18T12:23:29.006Z,102.47
2023-01-18T12:24:28.971Z,103.07
2023-01-18T12:25:29.023Z,105.61
2023-01-18T12:26:28.988Z,99.84
2023-01-18T12:27:28.905Z,99.96
2023-01-18T12:34:28.871Z,90.08
2023-01-18T14:09:25.909Z,62.07
2023-01-18T14:10:25.872Z,62.64
2023-01-18T14:11:25.840Z,62.15
2023-01-18T14:12:25.815Z,63.82
2023-01-18T14:13:25.762Z,64.56
2023-01-18T14:14:25.735Z,65.04
2023-01-18T14:15:25.697Z,65.08
2023-01-18T14:16:25.723Z,62.59
2023-01-18T14:17:25.733Z,64.70
2023-01-18T14:18:25.598Z,62.90
2023-01-18T14:19:25.576Z,63.94
2023-01-18T14:20:25.545Z,65.38
2023-01-18T14:21:25.500Z,63.54
2023-01-18T14:22:25.469Z,63.14
2023-01-18T14:23:25.435Z,62.28
2023-01-18T14:24:25.404Z,62.65
2023-01-18T14:25:25.457Z,62.63
2023-01-18T14:26:25.319Z,63.11
2023-01-18T14:27:25.300Z,63.38
2023-01-18T14:28:25.264Z,64.76
2023-01-18T14:29:25.225Z,64.92
2023-01-18T14:30:25.189Z,64.47
2023-01-18T14:31:25.204Z,64.64
2023-01-18T14:32:25.120Z,62.90
2023-01-18T14:33:25.083Z,63.91
2023-01-18T14:34:25.070Z,63.73
2023-01-18T14:35:25.949Z,65.59
2023-01-18T14:36:25.001Z,63.72
2023-01-18T14:37:24.962Z,64.55
2023-01-18T14:38:24.942Z,64.86
2023-01-18T14:39:24.919Z,67.87
2023-01-18T14:40:24.863Z,63.20
2023-01-18T14:41:24.825Z,65.21
2023-01-18T14:42:24.817Z,65.53
2023-01-18T14:43:24.772Z,68.08
2023-01-18T14:44:24.740Z,66.26
2023-01-18T14:45:24.723Z,66.94
2023-01-18T14:46:24.703Z,68.81
2023-01-18T14:47:24.845Z,67.63
2023-01-18T14:48:24.636Z,67.34
2023-01-18T14:49:24.605Z,66.61
2023-01-18T14:50:24.589Z,66.81
2023-01-18T14:51:24.560Z,66.85
2023-01-18T14:52:24.528Z,66.77
2023-01-18T14:53:24.498Z,65.60
2023-01-18T14:54:24.469Z,66.64
2023-01-18T14:55:24.443Z,68.48
2023-01-18T14:56:24.455Z,68.63
2023-01-18T14:57:24.398Z,68.66
2023-01-18T14:58:24.367Z,67.76
2023-01-18T14:59:24.358Z,66.74
2023-01-18T15:00:24.307Z,67.78
2023-01-18T15:01:24.414Z,69.32
2023-01-18T15:02:24.263Z,65.63
2023-01-18T15:03:24.356Z,67.55
2023-01-18T15:04:24.202Z,66.77
2023-01-18T15:05:24.152Z,68.33
2023-01-18T15:06:24.146Z,68.69
2023-01-18T15:07:24.112Z,66.56
2023-01-18T15:08:24.085Z,68.42
2023-01-18T15:09:25.949Z,68.40
2023-01-18T15:10:24.031Z,68.45
2023-01-18T15:11:24.001Z,68.14
2023-01-18T15:12:23.987Z,65.97
2023-01-18T15:13:23.952Z,67.02
2023-01-18T15:14:23.905Z,69.03
2023-01-18T15:15:23.873Z,68.62
2023-01-18T15:16:23.882Z,68.82
2023-01-18T15:17:23.824Z,68.03
2023-01-18T15:18:23.795Z,66.40
2023-01-18T15:19:23.746Z,65.85
2023-01-18T15:20:23.694Z,65.40
2023-01-18T15:21:23.655Z,65.68
2023-01-18T15:22:23.635Z,67.80
2023-01-18T15:23:23.614Z,67.29
2023-01-18T15:24:23.559Z,68.79
2023-01-18T15:25:23.521Z,66.50
2023-01-18T15:26:23.488Z,68.43
2023-01-18T15:27:23.458Z,69.38
2023-01-18T15:28:24.422Z,66.58
2023-01-18T15:29:25.945Z,65.53
2023-01-18T15:30:23.360Z,70.58
2023-01-18T15:31:23.353Z,67.82
2023-01-18T15:32:23.304Z,67.92
2023-01-18T15:33:23.289Z,68.93
2023-01-18T15:34:23.253Z,68.87
2023-01-18T15:35:23.225Z,69.05
2023-01-18T15:36:23.197Z,69.89
2023-01-18T15:37:23.153Z,66.61
2023-01-18T15:38:23.134Z,68.62
2023-01-18T15:39:23.096Z,68.10
2023-01-18T15:40:23.063Z,67.59
2023-01-18T15:41:23.028Z,67.21
2023-01-18T15:42:23.001Z,69.63
2023-01-18T15:43:22.973Z,70.25
2023-01-18T15:44:22.953Z,66.81
2023-01-18T15:45:22.940Z,71.13
2023-01-18T15:46:22.930Z,65.71
2023-01-18T15:47:22.879Z,66.06
2023-01-18T15:48:23.284Z,67.00
2023-01-18T15:49:22.815Z,67.39
2023-01-18T15:50:22.818Z,67.93
2023-01-18T15:51:23.066Z,67.63
2023-01-18T15:52:22.755Z,67.07
2023-01-18T15:53:22.745Z,68.19
2023-01-18T15:54:22.711Z,69.47
2023-01-18T15:55:22.680Z,64.54
2023-01-18T15:56:22.651Z,67.17
2023-01-18T15:57:22.614Z,64.31
2023-01-18T15:58:22.590Z,66.32
2023-01-18T15:59:22.561Z,66.56
2023-01-18T16:00:22.535Z,67.35
2023-01-18T16:01:22.559Z,66.65
2023-01-18T16:02:22.474Z,67.07
2023-01-18T16:03:22.460Z,66.53
2023-01-18T16:04:22.422Z,66.65
2023-01-18T16:05:22.403Z,67.06
2023-01-18T16:06:22.377Z,66.92
2023-01-18T16:07:22.349Z,66.42
2023-01-18T16:08:22.951Z,67.30
2023-01-18T16:09:22.310Z,64.28
2023-01-18T16:10:22.252Z,63.97
2023-01-18T16:11:22.215Z,66.00
2023-01-18T16:12:22.184Z,66.07
2023-01-18T16:13:22.158Z,69.59
2023-01-18T16:14:22.128Z,66.39
2023-01-18T16:15:22.094Z,65.51
2023-01-18T16:16:22.144Z,63.41
2023-01-18T16:17:22.028Z,64.05
2023-01-18T16:18:21.986Z,63.02
2023-01-18T16:19:21.945Z,64.36
2023-01-18T16:20:22.032Z,66.23
2023-01-18T16:21:21.869Z,66.12
2023-01-18T16:22:21.841Z,64.75
2023-01-18T16:23:23.171Z,64.51
2023-01-18T16:24:21.774Z,65.57
2023-01-18T16:25:21.744Z,67.68
2023-01-18T16:26:21.701Z,66.79
2023-01-18T16:27:21.672Z,64.75
2023-01-18T16:28:21.645Z,65.41
2023-01-18T16:29:21.625Z,66.12
2023-01-18T16:30:21.595Z,64.42
2023-01-18T16:31:22.923Z,62.18
2023-01-18T16:32:21.544Z,66.42
2023-01-18T16:33:21.525Z,64.59
2023-01-18T16:34:21.519Z,64.63
2023-01-18T16:35:21.461Z,62.40
2023-01-18T16:36:22.226Z,64.86
2023-01-18T16:37:21.387Z,64.87
2023-01-18T16:38:21.357Z,62.95
2023-01-18T16:39:21.333Z,66.21
2023-01-18T16:40:21.435Z,63.69
2023-01-18T16:41:21.275Z,63.66
2023-01-18T16:42:26.599Z,64.96
2023-01-18T16:43:22.228Z,65.08
2023-01-18T16:44:21.188Z,65.08
2023-01-18T16:45:21.161Z,63.66
2023-01-18T16:46:21.137Z,65.81
2023-01-18T16:47:21.098Z,64.14
2023-01-18T16:48:21.084Z,63.06
2023-01-18T16:49:21.044Z,63.22
2023-01-18T16:50:21.054Z,64.24
2023-01-18T16:51:20.976Z,63.46
2023-01-18T16:52:20.944Z,63.89
2023-01-18T16:53:20.932Z,63.73
2023-01-18T16:54:20.879Z,62.06
2023-01-18T16:55:20.859Z,63.88
2023-01-18T16:56:20.829Z,63.18
2023-01-18T16:57:20.805Z,63.22
2023-01-18T16:58:20.773Z,64.85
2023-01-18T16:59:20.764Z,62.34
2023-01-18T17:00:20.743Z,63.59
2023-01-18T17:01:20.804Z,61.21
2023-01-18T17:02:20.773Z,64.65
2023-01-18T17:03:20.648Z,60.06
2023-01-18T17:04:20.611Z,59.62
2023-01-18T17:05:20.557Z,61.30
2023-01-18T17:06:20.517Z,62.05
2023-01-18T17:07:20.475Z,61.89
2023-01-18T17:08:20.451Z,60.04
2023-01-18T17:09:20.415Z,62.40
2023-01-18T17:10:20.394Z,63.16
2023-01-18T17:11:20.370Z,63.58
2023-01-18T17:12:20.345Z,60.79
2023-01-18T17:13:20.322Z,61.27
2023-01-18T17:14:20.305Z,62.64
2023-01-18T17:15:20.333Z,61.71
2023-01-18T17:16:20.276Z,59.39
2023-01-18T17:17:20.216Z,59.57
2023-01-18T17:18:20.179Z,59.88
2023-01-18T17:19:20.146Z,59.59
2023-01-18T17:20:20.121Z,59.81
2023-01-18T17:21:20.090Z,62.18
2023-01-18T17:22:20.058Z,59.73
2023-01-18T17:23:20.042Z,58.98
2023-01-18T17:24:20.008Z,59.70
2023-01-18T17:25:19.979Z,60.55
2023-01-18T17:26:19.950Z,60.62
2023-01-18T17:27:19.920Z,58.53
2023-01-18T17:28:19.887Z,58.57
2023-01-18T17:29:19.861Z,60.70
2023-01-18T17:30:19.837Z,60.79
2023-01-18T17:31:19.835Z,59.94
2023-01-18T17:32:19.760Z,59.52
2023-01-18T17:33:19.729Z,58.50
2023-01-18T17:34:23.303Z,58.28
2023-01-18T17:35:20.685Z,60.80
2023-01-18T17:36:19.653Z,60.76
2023-01-18T17:37:19.619Z,59.44
2023-01-18T17:38:25.017Z,57.30
2023-01-18T17:39:20.541Z,60.72
2023-01-18T17:40:27.349Z,57.21
2023-01-18T17:41:26.757Z,60.79
2023-01-18T17:42:29.787Z,60.90
2023-01-18T17:43:33.293Z,61.01
2023-01-18T17:44:24.212Z,61.13
2023-01-18T17:45:20.396Z,61.20
2023-01-18T17:46:19.370Z,62.04
2023-01-18T17:47:19.303Z,61.79
2023-01-18T17:48:19.280Z,62.38
2023-01-18T17:49:19.242Z,60.20
2023-01-18T17:50:19.243Z,57.65
2023-01-18T17:51:19.197Z,58.00
2023-01-18T17:52:19.162Z,56.23
2023-01-18T17:53:19.137Z,56.22
2023-01-18T17:54:20.951Z,54.84
2023-01-18T17:55:24.343Z,56.31
2023-01-18T17:56:20.045Z,56.45
2023-01-18T17:57:19.026Z,56.38
2023-01-18T17:58:18.981Z,55.56
2023-01-18T17:59:18.958Z,55.95
2023-01-18T18:00:18.921Z,53.21
2023-01-18T20:37:14.062Z,34.92
2023-01-18T20:38:14.036Z,33.74
2023-01-18T20:39:14.007Z,32.53
2023-01-18T20:40:13.972Z,34.84
2023-01-18T20:41:13.949Z,32.12
2023-01-18T20:42:13.920Z,29.46
2023-01-18T20:43:13.880Z,29.91
2023-01-18T20:44:13.858Z,31.34
2023-01-18T20:45:13.816Z,32.37
2023-01-18T20:46:13.849Z,31.91
2023-01-18T20:47:13.766Z,29.96
2023-01-18T20:48:13.731Z,32.24
2023-01-18T20:49:13.705Z,30.16
2023-01-18T20:50:13.706Z,31.07
2023-01-18T20:51:13.658Z,27.80
2023-01-18T20:52:13.645Z,30.72
2023-01-18T20:53:13.621Z,29.65
2023-01-18T20:54:13.599Z,31.41
2023-01-18T20:55:13.579Z,32.36
2023-01-18T20:56:27.818Z,32.51
2023-01-18T20:57:14.494Z,32.56
2023-01-18T20:58:13.506Z,32.75
2023-01-18T20:59:13.456Z,32.52
2023-01-18T21:00:13.441Z,31.41
2023-01-18T21:01:13.481Z,31.03
2023-01-18T21:02:13.474Z,29.97
2023-01-18T21:03:13.333Z,30.27
2023-01-18T21:04:13.313Z,30.57
2023-01-18T21:05:13.295Z,31.17
2023-01-18T21:06:13.275Z,29.56
2023-01-18T21:07:13.222Z,29.16
2023-01-18T21:08:13.199Z,29.26
2023-01-18T21:09:13.155Z,28.73
2023-01-18T21:10:13.140Z,29.78
2023-01-18T21:11:13.130Z,27.55
2023-01-18T21:12:13.083Z,27.21
2023-01-18T21:13:13.050Z,28.44
2023-01-18T21:14:13.012Z,27.22
2023-01-18T21:15:12.994Z,27.31
2023-01-18T21:16:13.036Z,27.86
2023-01-18T21:17:12.913Z,28.55
2023-01-18T21:18:12.879Z,28.37
2023-01-18T21:19:12.856Z,28.10
2023-01-18T21:20:12.834Z,27.85
2023-01-18T21:21:12.795Z,27.65
2023-01-18T21:22:12.757Z,27.41
2023-01-18T21:23:12.743Z,27.37
2023-01-18T21:24:12.707Z,26.54
2023-01-18T21:25:12.686Z,27.95
2023-01-18T21:26:12.652Z,28.24
2023-01-18T21:27:12.626Z,25.90
2023-01-18T21:28:12.591Z,29.94
2023-01-18T21:29:12.574Z,28.48
2023-01-18T21:30:12.534Z,28.12
2023-01-18T21:32:12.474Z,30.68
2023-01-18T21:33:12.440Z,29.27
2023-01-18T21:34:12.412Z,30.86
2023-01-18T21:35:12.375Z,30.87
2023-01-18T21:36:12.369Z,28.58
2023-01-18T21:37:12.322Z,29.06
2023-01-18T21:38:12.287Z,28.79
2023-01-18T21:39:12.312Z,26.79
2023-01-18T21:40:12.246Z,28.28
2023-01-18T21:41:12.192Z,27.13
2023-01-18T21:42:12.162Z,29.02
2023-01-18T21:43:12.146Z,26.68
2023-01-18T21:44:12.771Z,27.01
2023-01-18T21:45:12.070Z,29.63
2023-01-18T21:46:12.037Z,29.17
2023-01-18T21:47:11.992Z,27.01
2023-01-18T21:48:12.957Z,27.25
2023-01-18T21:49:13.188Z,27.44
2023-01-18T21:50:17.478Z,27.23
2023-01-18T21:51:12.863Z,27.32
2023-01-18T21:52:11.836Z,27.97
2023-01-18T21:53:11.813Z,28.46
2023-01-18T21:54:11.784Z,29.23
2023-01-18T21:55:11.748Z,28.23
2023-01-18T21:56:11.720Z,27.37
2023-01-18T21:57:11.694Z,26.45
2023-01-18T21:58:11.653Z,27.92
2023-01-18T21:59:11.628Z,25.00
2023-01-18T22:00:11.615Z,30.98
2023-01-18T22:01:11.683Z,28.81
2023-01-18T22:02:11.622Z,29.30
2023-01-18T22:03:11.507Z,27.52
2023-01-18T22:04:11.488Z,28.87
2023-01-18T22:05:11.460Z,27.07
2023-01-18T22:06:11.423Z,29.13
2023-01-18T22:07:11.396Z,27.61
2023-01-18T22:08:11.372Z,28.43
2023-01-18T22:09:11.348Z,30.38
2023-01-18T22:10:11.395Z,27.38
2023-01-18T22:11:11.285Z,30.70
2023-01-18T22:12:11.252Z,26.51
2023-01-18T22:13:11.217Z,27.54
2023-01-18T22:14:11.186Z,28.32
2023-01-18T22:15:11.141Z,27.44
2023-01-18T22:16:11.106Z,29.05
2023-01-18T22:17:11.070Z,30.56
2023-01-18T22:18:11.044Z,26.70
2023-01-18T22:19:11.032Z,26.57
2023-01-18T22:20:10.986Z,26.82
2023-01-18T22:21:10.976Z,30.04
2023-01-18T22:22:10.947Z,28.30
2023-01-18T22:23:10.917Z,27.88
2023-01-18T22:24:10.891Z,28.12
2023-01-18T22:25:10.881Z,28.21
2023-01-18T22:26:10.860Z,28.78
2023-01-18T22:27:10.823Z,28.78
2023-01-18T22:28:10.825Z,28.95
2023-01-18T22:29:10.782Z,29.73
2023-01-18T22:30:10.765Z,27.89
2023-01-18T22:31:10.803Z,25.63
2023-01-18T22:32:10.714Z,29.53
2023-01-18T22:33:10.675Z,29.30
2023-01-18T22:34:10.640Z,27.58
2023-01-18T22:35:10.620Z,27.64
2023-01-18T22:36:10.590Z,28.60
2023-01-18T22:37:10.556Z,29.37
2023-01-18T22:38:10.538Z,29.53
2023-01-18T22:39:12.059Z,29.83
2023-01-18T22:40:10.492Z,29.89
2023-01-18T22:41:10.469Z,28.82
2023-01-18T22:42:10.439Z,27.61
2023-01-18T22:43:10.410Z,28.68
2023-01-18T22:44:10.394Z,27.03
2023-01-18T22:45:10.382Z,27.97
2023-01-18T22:46:10.370Z,29.19
2023-01-18T22:47:10.334Z,28.45
2023-01-18T22:48:10.315Z,26.75
2023-01-18T22:49:10.298Z,28.48
2023-01-18T22:50:10.271Z,26.16
2023-01-18T22:51:10.252Z,26.62
2023-01-18T22:52:10.215Z,27.78
2023-01-18T22:53:10.196Z,29.04
2023-01-18T22:54:10.184Z,28.68
2023-01-18T22:55:10.153Z,29.21
2023-01-18T22:56:10.126Z,27.33
2023-01-18T22:57:10.107Z,28.70
2023-01-18T22:58:10.075Z,29.25
2023-01-18T22:59:10.049Z,30.93
2023-01-18T23:00:10.027Z,27.18
2023-01-18T23:01:10.001Z,26.88
2023-01-18T23:02:09.961Z,30.23
2023-01-18T23:03:09.973Z,28.99
2023-01-18T23:04:09.896Z,29.75
2023-01-18T23:05:09.875Z,28.74
2023-01-18T23:06:09.845Z,27.65
2023-01-18T23:07:09.841Z,27.99
2023-01-18T23:08:09.799Z,28.91
2023-01-18T23:09:09.840Z,29.23
2023-01-18T23:10:09.763Z,26.13
2023-01-18T23:11:09.735Z,29.81
2023-01-18T23:12:09.712Z,27.36
2023-01-18T23:13:09.684Z,31.25
2023-01-18T23:14:09.738Z,29.30
2023-01-18T23:15:09.621Z,29.08
2023-01-18T23:16:09.666Z,28.78
2023-01-18T23:17:09.590Z,30.40
2023-01-18T23:18:09.550Z,28.17
2023-01-18T23:19:09.508Z,27.65
2023-01-18T23:20:09.498Z,28.18
2023-01-18T23:21:09.460Z,26.49
2023-01-18T23:22:09.451Z,27.30
2023-01-18T23:23:09.415Z,25.67
2023-01-18T23:24:09.394Z,27.49
2023-01-18T23:25:09.364Z,27.70
2023-01-18T23:26:09.344Z,27.79
2023-01-18T23:27:09.324Z,28.21
2023-01-18T23:28:09.301Z,27.18
2023-01-18T23:29:09.271Z,28.01
2023-01-18T23:30:09.259Z,27.11
2023-01-18T23:31:09.245Z,25.75
2023-01-18T23:32:09.205Z,26.97
2023-01-18T23:33:09.158Z,27.11
2023-01-18T23:34:09.141Z,28.55
2023-01-18T23:35:09.116Z,25.14
2023-01-18T23:36:09.081Z,25.98
2023-01-18T23:37:09.059Z,28.13
2023-01-18T23:38:09.025Z,25.44
2023-01-18T23:39:09.009Z,30.84
2023-01-18T23:40:08.976Z,28.25
2023-01-18T23:41:08.943Z,27.11
2023-01-18T23:42:08.928Z,29.09
2023-01-18T23:43:08.904Z,27.93
